首页
METAR-TAF:

METAR-TAF

机场 :

麦迪逊, 南达科他州, 美国

纬度: 44-00-59N, 经度: 097-05-08W, 海拔: 524米

当前天气观测

该预报发布于24分钟前的21:15 UTC
风速11节,风向南转西南
温度 26°C
湿度 42%
气压 1018 hPa
能見度: 16.1公里

METAR: KMDS 142115Z AUTO 20011KT 10SM 26/12 A3006 RMK AO2 TSNO

时间: 15:39 (21:39 UTC)


TAF: 丢失

超过4000个机场的气象观测和天气预报(METAR&TAF报告)。

可查询的气象台以黄色和红色小点在地图上表示。

将鼠标移到小点上方,可查看气象台名称。

然后点击查看天气观测和预报。

如需切换地图:点击带黑十字的绿色按钮放大地图;点击带横线的绿色按钮缩小地图;或者点击绿色箭头查看邻近地区的地图。


METAR-TAF: